createdAt,value
2017-08-04T00:00:05.105Z,24.2
2017-08-04T00:02:07.512Z,24.2
2017-08-04T00:04:05.181Z,24.2
2017-08-04T00:06:04.979Z,24.1
2017-08-04T00:08:04.885Z,24.2
2017-08-04T00:10:04.679Z,24.2
2017-08-04T00:12:05.421Z,24.2
2017-08-04T00:14:05.325Z,24.2
2017-08-04T00:16:10.638Z,24.1
2017-08-04T00:18:08.044Z,24.1
2017-08-04T00:20:07.628Z,24.1
2017-08-04T00:22:05.322Z,24.1
2017-08-04T00:24:05.588Z,24.1
2017-08-04T00:26:05.310Z,24.1
2017-08-04T00:28:05.070Z,24.1
2017-08-04T00:30:04.864Z,24.1
2017-08-04T00:32:05.213Z,24.1
2017-08-04T00:34:04.904Z,24.1
2017-08-04T00:36:04.699Z,24
2017-08-04T00:38:05.793Z,24
2017-08-04T00:40:10.555Z,24
2017-08-04T00:42:12.829Z,24
2017-08-04T00:44:05.683Z,24
2017-08-04T00:46:05.419Z,24
2017-08-04T00:48:05.125Z,24
2017-08-04T00:50:07.391Z,24
2017-08-04T00:52:05.107Z,24
2017-08-04T00:54:04.878Z,24
2017-08-04T00:56:05.813Z,24
2017-08-04T00:58:05.594Z,24
2017-08-04T01:00:12.971Z,23.9
2017-08-04T01:02:12.436Z,23.9
2017-08-04T01:04:05.164Z,23.9
2017-08-04T01:06:04.858Z,23.9
2017-08-04T01:08:10.734Z,23.9
2017-08-04T01:10:05.617Z,23.9
2017-08-04T01:12:05.309Z,23.9
2017-08-04T01:14:05.038Z,23.9
2017-08-04T01:16:05.290Z,23.9
2017-08-04T01:18:05.199Z,23.9
2017-08-04T01:20:10.817Z,23.9
2017-08-04T01:22:05.522Z,23.9
2017-08-04T01:24:05.312Z,23.9
2017-08-04T01:26:07.757Z,23.8
2017-08-04T01:28:08.036Z,23.8
2017-08-04T01:30:04.784Z,23.8
2017-08-04T01:32:08.093Z,23.8
2017-08-04T01:34:04.782Z,23.8
2017-08-04T01:36:05.504Z,23.9
2017-08-04T01:38:10.499Z,23.8
2017-08-04T01:40:10.234Z,23.8
2017-08-04T01:42:05.278Z,23.8
2017-08-04T01:44:07.840Z,23.8
2017-08-04T01:46:07.612Z,23.8
2017-08-04T01:48:05.241Z,23.8
2017-08-04T01:50:04.924Z,23.8
2017-08-04T01:52:07.210Z,23.8
2017-08-04T01:54:04.985Z,23.8
2017-08-04T01:56:05.021Z,23.8
2017-08-04T01:58:05.287Z,23.8
2017-08-04T02:00:07.581Z,23.7
2017-08-04T02:02:04.973Z,23.7
2017-08-04T02:04:10.273Z,23.7
2017-08-04T02:06:05.514Z,23.7
2017-08-04T02:08:05.529Z,23.7
2017-08-04T02:10:05.246Z,23.7
2017-08-04T02:12:05.441Z,23.7
2017-08-04T02:14:05.283Z,23.7
2017-08-04T02:16:05.017Z,23.7
2017-08-04T02:18:05.016Z,23.7
2017-08-04T02:20:04.861Z,23.7
2017-08-04T02:22:05.226Z,23.7
2017-08-04T02:24:04.973Z,23.7
2017-08-04T02:26:05.552Z,23.7
2017-08-04T02:28:05.278Z,23.7
2017-08-04T02:30:05.725Z,23.7
2017-08-04T02:32:05.584Z,23.7
2017-08-04T02:34:05.279Z,23.7
2017-08-04T02:36:05.006Z,23.6
2017-08-04T02:38:05.034Z,23.7
2017-08-04T02:40:04.722Z,23.6
2017-08-04T02:42:05.495Z,23.6
2017-08-04T02:44:05.334Z,23.6
2017-08-04T02:46:05.361Z,23.6
2017-08-04T02:48:05.605Z,23.6
2017-08-04T02:50:05.370Z,23.6
2017-08-04T02:52:05.112Z,23.6
2017-08-04T02:54:04.877Z,23.6
2017-08-04T02:56:07.195Z,23.6
2017-08-04T02:58:04.935Z,23.6
2017-08-04T03:00:04.708Z,23.6
2017-08-04T03:02:05.773Z,23.6
2017-08-04T03:04:05.462Z,23.6
2017-08-04T03:06:05.227Z,23.6
2017-08-04T03:08:05.375Z,23.6
2017-08-04T03:10:07.644Z,23.6
2017-08-04T03:12:05.375Z,23.6
2017-08-04T03:14:05.224Z,23.6
2017-08-04T03:16:05.050Z,23.6
2017-08-04T03:18:05.769Z,23.6
2017-08-04T03:20:08.029Z,23.5
2017-08-04T03:22:04.756Z,23.5
2017-08-04T03:24:05.468Z,23.5
2017-08-04T03:26:05.401Z,23.5
2017-08-04T03:28:04.592Z,23.6
2017-08-04T03:30:05.261Z,23.5
2017-08-04T03:32:05.177Z,23.5
2017-08-04T03:34:05.564Z,23.6
2017-08-04T03:36:05.243Z,23.5
2017-08-04T03:38:07.664Z,23.5
2017-08-04T03:40:07.979Z,23.5
2017-08-04T03:42:04.732Z,23.5
2017-08-04T03:44:05.591Z,23.5
2017-08-04T03:46:04.784Z,23.5
2017-08-04T03:48:05.462Z,23.5
2017-08-04T03:50:05.383Z,23.5
2017-08-04T03:52:04.621Z,23.5
2017-08-04T03:54:05.375Z,23.5
2017-08-04T03:56:05.321Z,23.5
2017-08-04T03:58:10.629Z,23.5
2017-08-04T04:00:05.411Z,23.5
2017-08-04T04:02:05.339Z,23.5
2017-08-04T04:04:05.610Z,23.5
2017-08-04T04:06:05.603Z,23.5
2017-08-04T04:08:05.671Z,23.5
2017-08-04T04:10:08.090Z,23.5
2017-08-04T04:12:07.348Z,23.5
2017-08-04T04:14:08.363Z,23.5
2017-08-04T04:16:05.144Z,23.5
2017-08-04T04:18:05.088Z,23.5
2017-08-04T04:20:07.699Z,23.5
2017-08-04T04:22:08.038Z,23.5
2017-08-04T04:24:05.264Z,23.4
2017-08-04T04:26:05.110Z,23.5
2017-08-04T04:28:07.829Z,23.5
2017-08-04T04:30:05.558Z,23.5
2017-08-04T04:32:09.260Z,23.5
2017-08-04T04:34:10.590Z,23.5
2017-08-04T04:36:05.412Z,23.5
2017-08-04T04:38:05.229Z,23.5
2017-08-04T04:40:04.904Z,23.5
2017-08-04T04:42:05.600Z,23.5
2017-08-04T04:44:07.899Z,23.4
2017-08-04T04:46:05.577Z,23.4
2017-08-04T04:48:05.327Z,23.5
2017-08-04T04:50:05.252Z,23.4
2017-08-04T04:52:07.518Z,23.4
2017-08-04T04:54:05.794Z,23.4
2017-08-04T04:56:05.532Z,23.4
2017-08-04T04:58:10.280Z,23.4
2017-08-04T05:00:04.995Z,23.4
2017-08-04T05:02:15.176Z,23.4
2017-08-04T05:04:12.445Z,23.4
2017-08-04T05:06:05.120Z,23.4
2017-08-04T05:08:04.942Z,23.4
2017-08-04T05:10:13.168Z,23.4
2017-08-04T05:12:05.352Z,23.4
2017-08-04T05:14:07.624Z,23.4
2017-08-04T05:16:04.887Z,23.4
2017-08-04T05:18:05.314Z,23.4
2017-08-04T05:20:05.078Z,23.4
2017-08-04T05:22:07.304Z,23.4
2017-08-04T05:24:05.021Z,23.4
2017-08-04T05:26:05.362Z,23.4
2017-08-04T05:28:04.603Z,23.4
2017-08-04T05:30:07.861Z,23.4
2017-08-04T05:32:05.585Z,23.3
2017-08-04T05:34:05.301Z,23.3
2017-08-04T05:36:04.986Z,23.3
2017-08-04T05:38:04.852Z,23.3
2017-08-04T05:40:05.580Z,23.3
2017-08-04T05:42:05.428Z,23.3
2017-08-04T05:44:09.629Z,23.3
2017-08-04T05:46:14.928Z,23.3
2017-08-04T05:48:04.630Z,23.3
2017-08-04T05:50:05.488Z,23.3
2017-08-04T05:52:07.789Z,23.3
2017-08-04T05:54:05.081Z,23.3
2017-08-04T05:56:07.556Z,23.3
2017-08-04T05:58:10.500Z,23.3
2017-08-04T06:00:05.240Z,23.3
2017-08-04T06:02:04.945Z,23.3
2017-08-04T06:04:07.177Z,23.3
2017-08-04T06:06:04.889Z,23.3
2017-08-04T06:08:10.386Z,23.3
2017-08-04T06:10:04.631Z,23.3
2017-08-04T06:12:04.997Z,23.4
2017-08-04T06:14:07.198Z,23.4
2017-08-04T06:16:05.014Z,23.4
2017-08-04T06:18:04.978Z,23.4
2017-08-04T06:20:04.857Z,23.4
2017-08-04T06:22:05.590Z,23.4
2017-08-04T06:24:05.325Z,23.4
2017-08-04T06:26:05.243Z,23.4
2017-08-04T06:28:05.087Z,23.4
2017-08-04T06:30:05.087Z,23.4
2017-08-04T06:32:04.968Z,23.4
2017-08-04T06:34:17.353Z,23.3
2017-08-04T06:36:07.587Z,23.4
2017-08-04T06:38:05.645Z,23.4
2017-08-04T06:40:05.526Z,23.4
2017-08-04T06:42:05.258Z,23.4
2017-08-04T06:44:07.532Z,23.4
2017-08-04T06:46:05.414Z,23.4
2017-08-04T06:48:07.290Z,23.4
2017-08-04T06:50:05.837Z,23.4
2017-08-04T06:52:04.750Z,23.4
2017-08-04T06:54:07.960Z,23.4
2017-08-04T06:56:04.813Z,23.4
2017-08-04T06:58:05.497Z,23.4
2017-08-04T07:00:04.713Z,23.4
2017-08-04T07:02:05.627Z,23.4
2017-08-04T07:04:04.846Z,23.4
2017-08-04T07:06:05.582Z,23.4
2017-08-04T07:08:07.998Z,23.4
2017-08-04T07:10:04.729Z,23.4
2017-08-04T07:12:05.478Z,23.4
2017-08-04T07:14:05.235Z,23.3
2017-08-04T07:16:08.229Z,23.3
2017-08-04T07:18:10.510Z,23.3
2017-08-04T07:20:07.752Z,23.3
2017-08-04T07:22:04.695Z,23.4
2017-08-04T07:24:05.373Z,23.4
2017-08-04T07:26:07.445Z,23.4
2017-08-04T07:28:07.751Z,23.4
2017-08-04T07:30:07.977Z,23.4
2017-08-04T07:32:07.426Z,23.4
2017-08-04T07:34:05.379Z,23.4
2017-08-04T07:36:05.133Z,23.4
2017-08-04T07:38:04.977Z,23.4
2017-08-04T07:40:04.707Z,23.4
2017-08-04T07:42:05.480Z,23.4
2017-08-04T07:44:05.221Z,23.4
2017-08-04T07:46:04.825Z,23.3
2017-08-04T07:48:05.049Z,23.3
2017-08-04T07:50:04.944Z,23.3
2017-08-04T07:52:07.287Z,23.3
2017-08-04T07:54:07.508Z,23.3
2017-08-04T07:56:05.220Z,23.3
2017-08-04T07:58:04.921Z,23.3
2017-08-04T08:00:04.755Z,23.3
2017-08-04T08:02:04.950Z,23.4
2017-08-04T08:04:04.618Z,23.4
2017-08-04T08:06:09.784Z,23.4
2017-08-04T08:08:05.037Z,23.4
2017-08-04T08:10:05.506Z,23.4
2017-08-04T08:12:04.642Z,23.3
2017-08-04T08:14:07.894Z,23.4
2017-08-04T08:16:05.615Z,23.4
2017-08-04T08:18:05.032Z,23.3
2017-08-04T08:20:04.770Z,23.4
2017-08-04T08:22:05.497Z,23.4
2017-08-04T08:24:07.755Z,23.4
2017-08-04T08:26:05.214Z,23.4
2017-08-04T08:28:04.993Z,23.4
2017-08-04T08:30:07.248Z,23.5
2017-08-04T08:32:07.777Z,23.5
2017-08-04T08:34:05.469Z,23.5
2017-08-04T08:36:05.141Z,23.5
2017-08-04T08:38:06.177Z,23.5
2017-08-04T08:40:07.500Z,23.5
2017-08-04T08:42:07.265Z,23.5
2017-08-04T08:44:05.156Z,23.5
2017-08-04T08:46:05.410Z,23.5
2017-08-04T08:48:05.109Z,23.5
2017-08-04T08:50:04.937Z,23.6
2017-08-04T08:52:07.209Z,23.6
2017-08-04T08:54:05.128Z,23.6
2017-08-04T08:56:05.603Z,23.6
2017-08-04T08:58:07.854Z,23.6
2017-08-04T09:00:05.578Z,23.6
2017-08-04T09:02:05.114Z,23.6
2017-08-04T09:04:04.790Z,23.6
2017-08-04T09:06:05.529Z,23.6
2017-08-04T09:08:04.825Z,23.6
2017-08-04T09:10:05.860Z,23.7
2017-08-04T09:12:06.018Z,23.7
2017-08-04T09:14:12.354Z,23.7
2017-08-04T09:16:05.300Z,23.7
2017-08-04T09:18:12.777Z,23.8
2017-08-04T09:20:04.938Z,23.8
2017-08-04T09:22:04.652Z,23.8
2017-08-04T09:24:05.336Z,23.9
2017-08-04T09:26:05.733Z,23.9
2017-08-04T09:28:07.981Z,23.9
2017-08-04T09:30:05.211Z,23.9
2017-08-04T09:32:07.604Z,24
2017-08-04T09:34:05.333Z,24
2017-08-04T09:36:07.644Z,24
2017-08-04T09:38:05.370Z,24
2017-08-04T09:40:05.147Z,24
2017-08-04T09:42:05.002Z,24
2017-08-04T09:44:04.850Z,24
2017-08-04T09:46:05.614Z,24
2017-08-04T09:48:10.377Z,24
2017-08-04T09:50:07.517Z,24
2017-08-04T09:52:05.207Z,24
2017-08-04T09:54:04.937Z,24
2017-08-04T09:56:04.840Z,24
2017-08-04T09:58:05.700Z,24
2017-08-04T10:00:05.425Z,24
2017-08-04T10:02:05.197Z,24
2017-08-04T10:04:05.418Z,23.9
2017-08-04T10:06:12.792Z,23.9
2017-08-04T10:08:08.386Z,23.9
2017-08-04T10:10:05.131Z,23.9
2017-08-04T10:12:04.924Z,23.9
2017-08-04T10:14:04.928Z,23.9
2017-08-04T10:16:12.233Z,23.9
2017-08-04T10:18:05.356Z,23.9
2017-08-04T10:20:05.723Z,23.9
2017-08-04T10:22:05.458Z,23.9
2017-08-04T10:24:07.917Z,23.8
2017-08-04T10:26:10.764Z,23.8
2017-08-04T10:28:05.041Z,23.8
2017-08-04T10:30:09.793Z,23.8
2017-08-04T10:32:10.342Z,23.8
2017-08-04T10:34:05.589Z,23.8
2017-08-04T10:36:05.328Z,23.8
2017-08-04T10:38:05.118Z,23.8
2017-08-04T10:40:08.149Z,23.8
2017-08-04T10:42:04.849Z,23.8
2017-08-04T10:44:08.285Z,23.8
2017-08-04T10:46:05.110Z,23.8
2017-08-04T10:48:05.359Z,23.8
2017-08-04T10:50:05.263Z,23.9
2017-08-04T10:52:05.016Z,23.9
2017-08-04T10:54:05.282Z,23.9
2017-08-04T10:56:08.058Z,23.9
2017-08-04T10:58:05.453Z,23.9
2017-08-04T11:00:05.151Z,23.9
2017-08-04T11:02:05.236Z,23.9
2017-08-04T11:04:05.019Z,23.9
2017-08-04T11:06:05.292Z,23.9
2017-08-04T11:08:07.856Z,23.9
2017-08-04T11:10:10.630Z,23.9
2017-08-04T11:12:05.674Z,23.9
2017-08-04T11:14:05.425Z,23.9
2017-08-04T11:16:05.195Z,23.8
2017-08-04T11:18:07.636Z,23.9
2017-08-04T11:20:05.366Z,23.8
2017-08-04T11:22:05.077Z,23.9
2017-08-04T11:24:07.349Z,23.9
2017-08-04T11:26:07.744Z,23.9
2017-08-04T11:28:05.472Z,23.9
2017-08-04T11:30:07.750Z,23.9
2017-08-04T11:32:05.503Z,23.9
2017-08-04T11:34:04.957Z,23.9
2017-08-04T11:36:05.505Z,23.9
2017-08-04T11:38:13.054Z,23.9
2017-08-04T11:40:04.766Z,23.9
2017-08-04T11:42:05.039Z,23.9
2017-08-04T11:44:09.908Z,23.9
2017-08-04T11:46:04.621Z,23.9
2017-08-04T11:48:10.363Z,23.9
2017-08-04T11:50:07.975Z,23.9
2017-08-04T11:52:05.022Z,23.9
2017-08-04T11:54:04.837Z,23.8
2017-08-04T11:56:05.822Z,23.8
2017-08-04T11:58:04.763Z,23.8
2017-08-04T12:00:05.513Z,23.8
2017-08-04T12:02:10.501Z,23.8
2017-08-04T12:04:05.183Z,23.8
2017-08-04T12:06:08.639Z,23.8
2017-08-04T12:08:07.407Z,23.8
2017-08-04T12:10:05.183Z,23.8
2017-08-04T12:12:12.517Z,23.8
2017-08-04T12:14:10.092Z,23.8
2017-08-04T12:16:04.915Z,23.8
2017-08-04T12:18:07.522Z,23.8
2017-08-04T12:20:05.382Z,23.8
2017-08-04T12:22:07.932Z,23.9
2017-08-04T12:24:10.497Z,23.8
2017-08-04T12:26:10.190Z,23.9
2017-08-04T12:28:04.922Z,23.9
2017-08-04T12:30:04.669Z,23.9
2017-08-04T12:32:05.535Z,23.9
2017-08-04T12:34:05.258Z,23.9
2017-08-04T12:36:04.957Z,23.9
2017-08-04T12:38:12.393Z,23.9
2017-08-04T12:40:05.126Z,23.9
2017-08-04T12:42:04.920Z,23.9
2017-08-04T12:44:05.422Z,23.9
2017-08-04T12:46:05.145Z,23.9
2017-08-04T12:48:05.437Z,23.9
2017-08-04T12:50:10.363Z,23.9
2017-08-04T12:52:05.110Z,23.9
2017-08-04T12:54:10.058Z,23.9
2017-08-04T12:56:05.010Z,23.9
2017-08-04T12:58:09.826Z,23.9
2017-08-04T13:00:06.574Z,24
2017-08-04T13:02:04.995Z,24
2017-08-04T13:04:10.295Z,23.9
2017-08-04T13:06:05.025Z,23.9
2017-08-04T13:08:05.087Z,23.9
2017-08-04T13:10:05.155Z,24
2017-08-04T13:12:07.386Z,23.9
2017-08-04T13:14:10.058Z,23.9
2017-08-04T13:16:04.762Z,23.9
2017-08-04T13:18:05.185Z,23.9
2017-08-04T13:20:07.459Z,24
2017-08-04T13:22:10.298Z,24
2017-08-04T13:24:05.002Z,24
2017-08-04T13:26:07.382Z,23.9
2017-08-04T13:28:05.133Z,24
2017-08-04T13:30:05.408Z,24
2017-08-04T13:32:05.304Z,24
2017-08-04T13:34:05.024Z,23.9
2017-08-04T13:36:04.744Z,24
2017-08-04T13:38:05.469Z,24
2017-08-04T13:40:04.719Z,24
2017-08-04T13:42:07.559Z,24
2017-08-04T13:44:05.289Z,24
2017-08-04T13:46:18.532Z,24
2017-08-04T13:48:04.892Z,24
2017-08-04T13:50:05.602Z,24
2017-08-04T13:52:07.837Z,24
2017-08-04T13:54:05.596Z,24
2017-08-04T13:56:04.993Z,24
2017-08-04T13:58:04.842Z,24
2017-08-04T14:00:05.561Z,24
2017-08-04T14:02:05.590Z,24
2017-08-04T14:04:05.353Z,24
2017-08-04T14:06:05.570Z,24
2017-08-04T14:08:05.396Z,24
2017-08-04T14:10:05.152Z,24
2017-08-04T14:12:04.853Z,24
2017-08-04T14:14:05.843Z,24.1
2017-08-04T14:16:05.133Z,24
2017-08-04T14:18:04.751Z,24.1
2017-08-04T14:20:05.543Z,24.1
2017-08-04T14:22:07.808Z,24.1
2017-08-04T14:24:13.137Z,24.1
2017-08-04T14:26:07.390Z,24
2017-08-04T14:28:04.680Z,24
2017-08-04T14:30:05.468Z,24
2017-08-04T14:32:08.053Z,24.1
2017-08-04T14:34:04.768Z,24.1
2017-08-04T14:36:05.543Z,24.1
2017-08-04T14:38:05.394Z,24.1
2017-08-04T14:40:05.194Z,24.1
2017-08-04T14:42:04.959Z,24.1
2017-08-04T14:44:04.807Z,24.1
2017-08-04T14:46:05.372Z,24.1
2017-08-04T14:48:05.379Z,24.1
2017-08-04T14:50:05.246Z,24.1
2017-08-04T14:52:05.042Z,24.1
2017-08-04T14:54:07.254Z,24.1
2017-08-04T14:56:12.743Z,24.1
2017-08-04T14:58:05.508Z,24.1
2017-08-04T15:00:07.714Z,24.1
2017-08-04T15:02:05.585Z,24.1
2017-08-04T15:04:05.318Z,24.1
2017-08-04T15:06:05.062Z,24.1
2017-08-04T15:08:07.482Z,24.1
2017-08-04T15:10:05.176Z,24.1
2017-08-04T15:12:04.950Z,24.1
2017-08-04T15:14:04.865Z,24.1
2017-08-04T15:16:05.627Z,24.1
2017-08-04T15:18:13.132Z,24.1
2017-08-04T15:20:05.049Z,24.1
2017-08-04T15:22:07.914Z,24.1
2017-08-04T15:24:04.612Z,24.1
2017-08-04T15:26:05.513Z,24.1
2017-08-04T15:28:05.250Z,24.1
2017-08-04T15:30:04.934Z,24.1
2017-08-04T15:32:04.938Z,24.1
2017-08-04T15:34:04.850Z,24.1
2017-08-04T15:36:12.679Z,24.2
2017-08-04T15:38:04.935Z,24.1
2017-08-04T15:40:04.619Z,24.1
2017-08-04T15:42:12.895Z,24.1
2017-08-04T15:44:05.763Z,24.1
2017-08-04T15:46:08.054Z,24.2
2017-08-04T15:48:07.297Z,24.1
2017-08-04T15:50:05.624Z,24.2
2017-08-04T15:52:07.892Z,24.1
2017-08-04T15:54:05.628Z,24.1
2017-08-04T15:56:07.854Z,24.1
2017-08-04T15:58:05.552Z,24.2
2017-08-04T16:00:05.325Z,24.2
2017-08-04T16:02:05.201Z,24.2
2017-08-04T16:04:07.471Z,24.2
2017-08-04T16:06:05.364Z,24.2
2017-08-04T16:08:05.686Z,24.2
2017-08-04T16:10:10.463Z,24.2
2017-08-04T16:12:05.182Z,24.2
2017-08-04T16:14:07.662Z,24.2
2017-08-04T16:16:05.391Z,24.2
2017-08-04T16:18:05.468Z,24.3
2017-08-04T16:20:05.481Z,24.3
2017-08-04T16:22:04.756Z,24.3
2017-08-04T16:24:05.470Z,24.4
2017-08-04T16:26:07.701Z,24.5
2017-08-04T16:28:05.396Z,24.5
2017-08-04T16:30:04.580Z,24.5
2017-08-04T16:32:05.029Z,24.5
2017-08-04T16:34:04.729Z,24.6
2017-08-04T16:36:05.431Z,24.6
2017-08-04T16:38:05.310Z,24.6
2017-08-04T16:40:05.256Z,24.7
2017-08-04T16:42:08.016Z,24.7
2017-08-04T16:44:05.271Z,24.7
2017-08-04T16:46:05.030Z,24.7
2017-08-04T16:48:04.732Z,24.7
2017-08-04T16:50:08.090Z,24.8
2017-08-04T16:52:05.298Z,24.8
2017-08-04T16:54:05.114Z,24.7
2017-08-04T16:56:04.880Z,24.7
2017-08-04T16:58:05.616Z,24.7
2017-08-04T17:00:05.333Z,24.7
2017-08-04T17:02:07.804Z,24.7
2017-08-04T17:04:05.543Z,24.7
2017-08-04T17:06:05.297Z,24.7
2017-08-04T17:08:05.183Z,24.7
2017-08-04T17:10:04.914Z,24.7
2017-08-04T17:12:04.700Z,24.7
2017-08-04T17:14:05.432Z,24.7
2017-08-04T17:16:07.657Z,24.7
2017-08-04T17:18:05.538Z,24.6
2017-08-04T17:20:05.281Z,24.7
2017-08-04T17:22:05.029Z,24.7
2017-08-04T17:24:04.862Z,24.7
2017-08-04T17:26:05.768Z,24.6
2017-08-04T17:28:05.565Z,24.6
2017-08-04T17:30:05.263Z,24.6
2017-08-04T17:32:05.082Z,24.6
2017-08-04T17:34:04.903Z,24.6
2017-08-04T17:36:04.817Z,24.6
2017-08-04T17:38:05.648Z,24.5
2017-08-04T17:40:05.375Z,24.5
2017-08-04T17:42:05.772Z,24.5
2017-08-04T17:44:05.814Z,24.5
2017-08-04T17:46:05.546Z,24.5
2017-08-04T17:48:05.317Z,24.5
2017-08-04T17:50:05.320Z,24.5
2017-08-04T17:52:08.148Z,24.5
2017-08-04T17:54:04.942Z,24.4
2017-08-04T17:56:04.899Z,24.5
2017-08-04T17:58:14.755Z,24.5
2017-08-04T18:00:05.014Z,24.5
2017-08-04T18:02:05.091Z,24.5
2017-08-04T18:04:07.509Z,24.5
2017-08-04T18:06:05.219Z,24.4
2017-08-04T18:08:04.884Z,24.5
2017-08-04T18:10:04.890Z,24.4
2017-08-04T18:12:05.686Z,24.4
2017-08-04T18:14:08.122Z,24.4
2017-08-04T18:16:04.839Z,24.3
2017-08-04T18:18:04.707Z,24.4
2017-08-04T18:20:08.132Z,24.4
2017-08-04T18:22:05.389Z,24.4
2017-08-04T18:24:07.913Z,24.3
2017-08-04T18:26:05.791Z,24.4
2017-08-04T18:28:05.612Z,24.4
2017-08-04T18:30:05.042Z,24.4
2017-08-04T18:32:07.633Z,24.3
2017-08-04T18:34:07.416Z,24.3
2017-08-04T18:36:12.739Z,24.3
2017-08-04T18:38:05.280Z,24.3
2017-08-04T18:40:04.972Z,24.3
2017-08-04T18:42:04.667Z,24.3
2017-08-04T18:44:05.256Z,24.3
2017-08-04T18:46:05.166Z,24.3
2017-08-04T18:48:05.980Z,24.3
2017-08-04T18:50:07.453Z,24.3
2017-08-04T18:52:05.181Z,24.3
2017-08-04T18:54:05.267Z,24.2
2017-08-04T18:56:10.603Z,24.3
2017-08-04T18:58:10.392Z,24.3
2017-08-04T19:00:05.148Z,24.2
2017-08-04T19:02:10.065Z,24.2
2017-08-04T19:04:12.318Z,24.2
2017-08-04T19:06:05.310Z,24.2
2017-08-04T19:08:05.347Z,24.2
2017-08-04T19:10:05.103Z,24.2
2017-08-04T19:12:09.848Z,24.2
2017-08-04T19:14:05.372Z,24.2
2017-08-04T19:16:05.077Z,24.2
2017-08-04T19:18:05.631Z,24.1
2017-08-04T19:20:05.459Z,24.1
2017-08-04T19:22:07.267Z,24.1
2017-08-04T19:24:04.997Z,24.1
2017-08-04T19:26:05.421Z,24.1
2017-08-04T19:28:05.205Z,24.1
2017-08-04T19:30:16.057Z,24
2017-08-04T19:32:12.931Z,24
2017-08-04T19:34:04.802Z,24
2017-08-04T19:36:04.749Z,24
2017-08-04T19:38:05.558Z,24
2017-08-04T19:40:04.820Z,24
2017-08-04T19:42:05.518Z,24
2017-08-04T19:44:10.566Z,24
2017-08-04T19:46:07.840Z,24
2017-08-04T19:48:05.544Z,24
2017-08-04T19:50:05.483Z,24
2017-08-04T19:52:07.284Z,24
2017-08-04T19:54:05.103Z,24
2017-08-04T19:56:05.074Z,24
2017-08-04T19:58:04.847Z,24
2017-08-04T20:00:05.578Z,24
2017-08-04T20:02:07.926Z,23.9
2017-08-04T20:04:04.691Z,23.9
2017-08-04T20:06:05.400Z,23.9
2017-08-04T20:08:04.787Z,23.9
2017-08-04T20:10:05.512Z,23.9
2017-08-04T20:12:07.723Z,23.9
2017-08-04T20:14:05.859Z,23.9
2017-08-04T20:16:09.841Z,23.9
2017-08-04T20:18:07.378Z,23.8
2017-08-04T20:20:05.218Z,23.8
2017-08-04T20:22:05.085Z,23.8
2017-08-04T20:24:09.890Z,23.8
2017-08-04T20:26:04.782Z,23.8
2017-08-04T20:28:05.049Z,23.8
2017-08-04T20:30:07.302Z,23.8
2017-08-04T20:32:05.687Z,23.8
2017-08-04T20:34:05.474Z,23.8
2017-08-04T20:36:05.177Z,23.7
2017-08-04T20:38:05.595Z,23.7
2017-08-04T20:40:07.877Z,23.7
2017-08-04T20:42:05.572Z,23.7
2017-08-04T20:44:08.031Z,23.7
2017-08-04T20:46:05.372Z,23.7
2017-08-04T20:48:04.685Z,23.7
2017-08-04T20:50:05.090Z,23.7
2017-08-04T20:52:09.865Z,23.6
2017-08-04T20:54:08.182Z,23.7
2017-08-04T20:56:07.568Z,23.6
2017-08-04T20:58:05.278Z,23.6
2017-08-04T21:00:05.018Z,23.6
2017-08-04T21:02:04.783Z,23.6
2017-08-04T21:04:05.499Z,23.6
2017-08-04T21:06:10.278Z,23.5
2017-08-04T21:08:05.297Z,23.6
2017-08-04T21:10:08.319Z,23.6
2017-08-04T21:12:05.014Z,23.5
2017-08-04T21:14:05.060Z,23.5
2017-08-04T21:16:07.428Z,23.5
2017-08-04T21:18:09.895Z,23.5
2017-08-04T21:20:05.842Z,23.5
2017-08-04T21:22:10.059Z,23.5
2017-08-04T21:24:04.755Z,23.5
2017-08-04T21:26:05.708Z,23.5
2017-08-04T21:28:05.637Z,23.5
2017-08-04T21:30:04.894Z,23.5
2017-08-04T21:32:08.117Z,23.5
2017-08-04T21:34:04.752Z,23.5
2017-08-04T21:36:08.080Z,23.5
2017-08-04T21:38:05.546Z,23.5
2017-08-04T21:40:06.262Z,23.4
2017-08-04T21:42:05.800Z,23.4
2017-08-04T21:44:05.228Z,23.4
2017-08-04T21:46:08.121Z,23.4
2017-08-04T21:48:05.836Z,23.3
2017-08-04T21:50:04.786Z,23.3
2017-08-04T21:52:06.222Z,23.3
2017-08-04T21:54:11.651Z,23.3
2017-08-04T21:56:05.532Z,23.3
2017-08-04T21:58:12.624Z,23.3
2017-08-04T22:00:05.062Z,23.3
2017-08-04T22:02:07.416Z,23.3
2017-08-04T22:04:05.590Z,23.3
2017-08-04T22:06:04.794Z,23.3
2017-08-04T22:08:05.665Z,23.3
2017-08-04T22:10:04.912Z,23.3
2017-08-04T22:12:05.650Z,23.3
2017-08-04T22:14:05.899Z,23.3
2017-08-04T22:16:04.663Z,23.2
2017-08-04T22:18:04.809Z,23.2
2017-08-04T22:20:04.970Z,23.2
2017-08-04T22:22:08.549Z,23.2
2017-08-04T22:24:05.455Z,23.2
2017-08-04T22:26:05.330Z,23.2
2017-08-04T22:28:05.246Z,23.2
2017-08-04T22:30:07.829Z,23.1
2017-08-04T22:32:04.662Z,23.1
2017-08-04T22:34:04.686Z,23.1
2017-08-04T22:36:06.002Z,23
2017-08-04T22:38:04.827Z,23
2017-08-04T22:40:05.065Z,23
2017-08-04T22:42:04.689Z,23
2017-08-04T22:44:04.885Z,23
2017-08-04T22:46:05.807Z,23
2017-08-04T22:48:05.567Z,23
2017-08-04T22:50:15.204Z,23
2017-08-04T22:52:05.062Z,23
2017-08-04T22:54:05.363Z,22.9
2017-08-04T22:56:05.466Z,22.9
2017-08-04T22:58:05.628Z,22.9
2017-08-04T23:00:07.893Z,22.9
2017-08-04T23:02:05.090Z,22.9
2017-08-04T23:04:05.023Z,22.9
2017-08-04T23:06:07.391Z,22.9
2017-08-04T23:08:04.929Z,22.9
2017-08-04T23:10:05.357Z,22.9
2017-08-04T23:12:05.105Z,22.9
2017-08-04T23:14:05.574Z,22.9
2017-08-04T23:16:05.506Z,22.8
2017-08-04T23:18:08.902Z,22.8
2017-08-04T23:20:05.138Z,22.8
2017-08-04T23:22:07.426Z,22.7
2017-08-04T23:24:05.649Z,22.7
2017-08-04T23:26:07.261Z,22.7
2017-08-04T23:28:05.236Z,22.7
2017-08-04T23:30:08.521Z,22.7
2017-08-04T23:32:07.565Z,22.7
2017-08-04T23:34:05.669Z,22.6
2017-08-04T23:36:05.234Z,22.7
2017-08-04T23:38:05.110Z,22.7
2017-08-04T23:40:07.566Z,22.7
2017-08-04T23:42:04.993Z,22.7
2017-08-04T23:44:05.018Z,22.7
2017-08-04T23:46:05.493Z,22.7
2017-08-04T23:48:05.013Z,22.7
2017-08-04T23:50:05.561Z,22.7
2017-08-04T23:52:05.302Z,22.6
2017-08-04T23:54:10.073Z,22.6
2017-08-04T23:56:04.932Z,22.6
2017-08-04T23:58:12.758Z,22.6
